createdAt,value
2022-09-22T00:01:40.630Z,50.76
2022-09-22T00:04:13.605Z,50.52
2022-09-22T00:06:48.806Z,50.19
2022-09-22T00:09:20.674Z,50.19
2022-09-22T00:11:52.278Z,49.24
2022-09-22T00:14:27.474Z,49.40
2022-09-22T00:17:05.547Z,49.25
2022-09-22T00:19:37.228Z,49.19
2022-09-22T00:22:06.549Z,48.92
2022-09-22T00:24:35.504Z,49.11
2022-09-22T00:27:04.343Z,48.79
2022-09-22T00:29:33.060Z,47.94
2022-09-22T00:32:07.147Z,48.58
2022-09-22T00:34:36.255Z,47.94
2022-09-22T00:37:05.053Z,48.04
2022-09-22T00:39:33.747Z,48.10
2022-09-22T00:42:02.533Z,47.50
2022-09-22T00:44:34.588Z,48.24
2022-09-22T00:47:14.164Z,47.68
2022-09-22T00:50:00.995Z,47.40
2022-09-22T00:52:32.968Z,47.21
2022-09-22T00:55:05.213Z,47.71
2022-09-22T00:57:37.447Z,48.28
2022-09-22T01:00:10.151Z,49.42
2022-09-22T01:02:39.548Z,49.62
2022-09-22T01:05:09.501Z,50.05
2022-09-22T01:07:38.580Z,50.27
2022-09-22T01:10:08.195Z,50.29
2022-09-22T01:12:37.659Z,50.35
2022-09-22T01:15:15.126Z,51.05
2022-09-22T01:18:01.875Z,50.97
2022-09-22T01:20:42.454Z,51.57
2022-09-22T01:23:32.386Z,51.74
2022-09-22T01:26:25.200Z,51.22
2022-09-22T01:29:12.635Z,51.58
2022-09-22T01:32:33.472Z,52.13
2022-09-22T01:35:13.646Z,52.25
2022-09-22T01:37:54.418Z,52.44
2022-09-22T01:40:41.083Z,52.36
2022-09-22T01:43:31.914Z,52.55
2022-09-22T01:46:05.744Z,52.37
2022-09-22T01:48:37.421Z,52.66
2022-09-22T01:51:15.440Z,52.82
2022-09-22T01:53:54.441Z,53.74
2022-09-22T01:56:26.095Z,54.30
2022-09-22T01:58:59.437Z,54.74
2022-09-22T02:01:36.403Z,54.85
2022-09-22T02:04:15.030Z,54.64
2022-09-22T02:06:53.095Z,54.83
2022-09-22T02:09:27.699Z,56.21
2022-09-22T02:11:58.026Z,56.61
2022-09-22T02:14:27.650Z,57.13
2022-09-22T02:16:57.737Z,57.17
2022-09-22T02:19:29.936Z,57.32
2022-09-22T02:21:59.751Z,57.16
2022-09-22T02:24:41.717Z,57.45
2022-09-22T02:27:13.941Z,58.30
2022-09-22T02:30:22.848Z,59.15
2022-09-22T02:32:54.899Z,59.54
2022-09-22T02:35:27.492Z,60.36
2022-09-22T02:38:11.195Z,61.06
2022-09-22T02:40:57.019Z,60.90
2022-09-22T02:43:51.727Z,61.53
2022-09-22T02:46:31.287Z,61.00
2022-09-22T02:49:12.086Z,61.54
2022-09-22T02:51:42.598Z,60.92
2022-09-22T02:54:11.346Z,61.11
2022-09-22T02:56:40.065Z,62.09
2022-09-22T02:59:12.552Z,61.93
2022-09-22T03:01:41.980Z,62.08
2022-09-22T03:04:11.112Z,62.29
2022-09-22T03:06:39.996Z,61.96
2022-09-22T03:09:08.709Z,62.20
2022-09-22T03:11:37.445Z,62.68
2022-09-22T03:14:06.118Z,62.83
2022-09-22T03:16:35.024Z,62.47
2022-09-22T03:19:03.944Z,62.67
2022-09-22T03:21:32.700Z,63.34
2022-09-22T03:24:01.505Z,64.04
2022-09-22T03:26:30.299Z,64.15
2022-09-22T03:28:59.228Z,63.62
2022-09-22T03:31:27.980Z,64.03
2022-09-22T03:33:56.644Z,64.39
2022-09-22T03:36:25.473Z,64.72
2022-09-22T03:38:54.264Z,64.83
2022-09-22T03:41:23.000Z,64.98
2022-09-22T03:43:51.714Z,64.79
2022-09-22T03:46:20.598Z,64.48
2022-09-22T03:48:49.395Z,64.75
2022-09-22T03:51:18.266Z,64.27
2022-09-22T03:53:47.085Z,64.54
2022-09-22T03:56:17.051Z,64.50
2022-09-22T03:58:45.896Z,64.35
2022-09-22T04:01:15.243Z,64.45
2022-09-22T04:03:44.234Z,64.81
2022-09-22T04:06:13.354Z,64.79
2022-09-22T04:08:42.180Z,64.71
2022-09-22T04:11:10.918Z,65.66
2022-09-22T04:13:44.022Z,65.91
2022-09-22T04:16:15.725Z,65.74
2022-09-22T04:18:44.562Z,66.77
2022-09-22T04:21:13.780Z,67.26
2022-09-22T04:23:42.493Z,66.44
2022-09-22T04:26:11.181Z,66.89
2022-09-22T04:28:39.915Z,66.71
2022-09-22T04:31:08.742Z,67.58
2022-09-22T04:33:37.994Z,68.35
2022-09-22T04:36:07.142Z,68.54
2022-09-22T04:38:35.901Z,69.28
2022-09-22T04:41:04.635Z,69.61
2022-09-22T04:43:33.425Z,69.28
2022-09-22T04:46:02.418Z,69.91
2022-09-22T04:48:31.260Z,68.75
2022-09-22T04:51:00.261Z,68.68
2022-09-22T04:53:29.763Z,68.38
2022-09-22T04:55:58.738Z,68.82
2022-09-22T04:58:27.798Z,68.59
2022-09-22T05:01:02.104Z,68.32
2022-09-22T05:03:31.427Z,68.83
2022-09-22T05:06:00.246Z,68.81
2022-09-22T05:08:28.929Z,68.45
2022-09-22T05:10:57.858Z,68.74
2022-09-22T05:13:26.755Z,69.16
2022-09-22T05:15:55.543Z,69.13
2022-09-22T05:18:24.352Z,69.15
2022-09-22T05:20:53.176Z,69.31
2022-09-22T05:23:22.019Z,69.32
2022-09-22T05:25:50.808Z,68.85
2022-09-22T05:28:20.962Z,68.30
2022-09-22T05:30:52.864Z,68.68
2022-09-22T05:33:21.861Z,68.14
2022-09-22T05:35:50.795Z,67.19
2022-09-22T05:38:19.696Z,67.46
2022-09-22T05:40:48.540Z,66.90
2022-09-22T05:43:17.309Z,66.64
2022-09-22T05:45:46.551Z,66.53
2022-09-22T05:48:15.286Z,66.31
2022-09-22T05:50:46.090Z,64.91
2022-09-22T05:53:15.176Z,65.00
2022-09-22T05:55:43.867Z,64.87
2022-09-22T05:58:13.092Z,64.38
2022-09-22T06:00:43.101Z,63.22
2022-09-22T06:03:12.233Z,61.55
2022-09-22T06:05:41.026Z,59.62
2022-09-22T06:08:10.297Z,59.11
2022-09-22T06:10:39.959Z,57.60
2022-09-22T06:13:11.282Z,58.30
2022-09-22T06:15:40.486Z,59.02
2022-09-22T06:18:15.163Z,59.15
2022-09-22T06:20:45.393Z,60.38
2022-09-22T06:23:15.969Z,60.94
2022-09-22T06:25:45.166Z,61.45
2022-09-22T06:28:15.164Z,62.03
2022-09-22T06:30:43.889Z,62.22
2022-09-22T06:33:12.861Z,62.44
2022-09-22T06:35:43.448Z,62.63
2022-09-22T06:38:15.535Z,62.76
2022-09-22T06:40:45.518Z,63.08
2022-09-22T06:43:25.754Z,63.08
2022-09-22T06:45:54.573Z,63.30
2022-09-22T06:48:24.533Z,63.46
2022-09-22T06:50:55.088Z,63.48
2022-09-22T06:53:27.107Z,63.36
2022-09-22T06:55:56.535Z,63.46
2022-09-22T06:58:25.904Z,63.60
2022-09-22T07:00:55.317Z,63.62
2022-09-22T07:03:26.808Z,63.59
2022-09-22T07:06:01.506Z,63.95
2022-09-22T07:08:32.209Z,64.13
2022-09-22T07:11:03.453Z,64.24
2022-09-22T07:13:33.112Z,64.52
2022-09-22T07:16:03.900Z,64.94
2022-09-22T07:18:32.684Z,65.87
2022-09-22T07:21:31.153Z,66.58
2022-09-22T07:24:00.115Z,66.94
2022-09-22T07:26:34.579Z,67.66
2022-09-22T07:29:06.740Z,67.99
2022-09-22T07:31:37.381Z,68.17
2022-09-22T07:34:06.273Z,68.66
2022-09-22T07:36:37.552Z,68.40
2022-09-22T07:39:11.574Z,68.25
2022-09-22T07:41:43.935Z,68.65
2022-09-22T07:44:34.383Z,68.71
2022-09-22T07:47:04.085Z,69.53
2022-09-22T07:49:32.993Z,69.37
2022-09-22T07:52:02.001Z,69.61
2022-09-22T07:54:31.297Z,70.35
2022-09-22T07:57:00.127Z,71.17
2022-09-22T07:59:28.947Z,71.59
2022-09-22T08:01:59.007Z,71.38
2022-09-22T08:04:31.281Z,71.66
2022-09-22T08:07:00.483Z,72.54
2022-09-22T08:09:30.850Z,72.58
2022-09-22T08:12:00.503Z,72.68
2022-09-22T08:14:30.494Z,72.91
2022-09-22T08:16:59.175Z,72.94
2022-09-22T08:19:27.955Z,72.90
2022-09-22T08:21:56.678Z,73.20
2022-09-22T08:24:25.731Z,73.31
2022-09-22T08:26:56.472Z,72.89
2022-09-22T08:29:25.364Z,73.18
2022-09-22T08:31:54.786Z,73.14
2022-09-22T08:34:23.650Z,72.98
2022-09-22T08:36:52.410Z,73.45
2022-09-22T08:39:21.314Z,74.16
2022-09-22T08:42:29.141Z,74.89
2022-09-22T08:45:07.748Z,75.23
2022-09-22T08:48:06.487Z,75.51
2022-09-22T08:51:17.173Z,75.47
2022-09-22T08:53:52.071Z,75.65
2022-09-22T08:56:37.339Z,75.38
2022-09-22T08:59:24.251Z,75.37
2022-09-22T09:02:03.279Z,75.47
2022-09-22T09:04:43.575Z,75.29
2022-09-22T09:07:12.432Z,76.02
2022-09-22T09:10:02.445Z,75.83
2022-09-22T09:12:48.509Z,76.64
2022-09-22T09:15:32.649Z,76.31
2022-09-22T09:18:08.114Z,76.46
2022-09-22T09:20:40.512Z,76.82
2022-09-22T09:23:19.652Z,76.95
2022-09-22T09:25:53.016Z,76.97
2022-09-22T09:28:30.492Z,76.94
2022-09-22T09:31:22.216Z,77.27
2022-09-22T09:33:59.439Z,77.46
2022-09-22T09:36:32.106Z,77.37
2022-09-22T09:39:11.240Z,77.30
2022-09-22T09:41:42.117Z,77.13
2022-09-22T09:44:22.938Z,77.51
2022-09-22T09:47:15.049Z,77.60
2022-09-22T09:49:44.867Z,77.54
2022-09-22T09:52:15.600Z,77.93
2022-09-22T09:54:47.845Z,78.11
2022-09-22T09:57:18.832Z,78.21
2022-09-22T10:00:32.888Z,78.22
2022-09-22T10:03:07.027Z,78.13
2022-09-22T10:05:38.135Z,78.49
2022-09-22T10:08:20.752Z,78.49
2022-09-22T10:10:49.831Z,78.40
2022-09-22T10:13:30.114Z,78.68
2022-09-22T10:16:08.004Z,78.62
2022-09-22T10:18:42.203Z,78.36
2022-09-22T10:21:15.194Z,78.60
2022-09-22T10:23:45.791Z,78.35
2022-09-22T10:26:16.419Z,78.60
2022-09-22T10:28:51.297Z,78.62
2022-09-22T10:31:27.677Z,78.89
2022-09-22T10:34:01.134Z,78.77
2022-09-22T10:36:31.842Z,78.88
2022-09-22T10:39:00.528Z,78.79
2022-09-22T10:41:35.868Z,78.79
2022-09-22T10:47:26.166Z,78.88
2022-09-22T10:50:36.178Z,78.68
2022-09-22T10:53:28.003Z,78.65
2022-09-22T10:56:14.727Z,78.46
2022-09-22T10:58:58.964Z,78.66
2022-09-22T11:01:44.252Z,78.53
2022-09-22T11:04:50.951Z,78.63
2022-09-22T11:07:58.083Z,78.65
2022-09-22T11:10:59.352Z,78.44
2022-09-22T11:13:53.219Z,78.35
2022-09-22T11:16:22.114Z,78.57
2022-09-22T11:18:51.359Z,78.53
2022-09-22T11:21:44.595Z,78.64
2022-09-22T11:24:16.013Z,78.45
2022-09-22T11:26:58.111Z,78.46
2022-09-22T11:29:47.390Z,78.56
2022-09-22T11:32:27.041Z,78.34
2022-09-22T11:35:15.351Z,78.58
2022-09-22T11:37:56.005Z,78.19
2022-09-22T11:40:37.004Z,78.22
2022-09-22T11:43:09.914Z,78.24
2022-09-22T11:45:49.816Z,78.06
2022-09-22T11:48:30.372Z,77.74
2022-09-22T11:51:09.428Z,77.67
2022-09-22T11:53:56.487Z,77.86
2022-09-22T11:56:43.092Z,77.60
2022-09-22T11:59:21.424Z,77.51
2022-09-22T12:01:52.987Z,77.25
2022-09-22T12:04:53.571Z,77.22
2022-09-22T12:07:31.874Z,77.05
2022-09-22T12:10:07.743Z,76.78
2022-09-22T12:12:38.249Z,76.62
2022-09-22T12:15:32.070Z,76.70
2022-09-22T12:18:15.838Z,76.60
2022-09-22T12:21:00.914Z,76.35
2022-09-22T12:23:45.289Z,76.01
2022-09-22T12:26:28.029Z,76.17
2022-09-22T12:28:59.220Z,75.79
2022-09-22T12:31:37.456Z,75.89
2022-09-22T12:34:16.460Z,75.59
2022-09-22T12:36:46.642Z,75.41
2022-09-22T12:39:19.589Z,75.34
2022-09-22T12:41:48.825Z,74.99
2022-09-22T12:44:25.551Z,74.73
2022-09-22T12:47:03.462Z,74.57
2022-09-22T12:49:32.768Z,74.81
2022-09-22T12:52:01.826Z,74.72
2022-09-22T12:54:38.488Z,74.83
2022-09-22T12:57:10.688Z,74.61
2022-09-22T12:59:40.127Z,74.65
2022-09-22T13:02:16.758Z,74.49
2022-09-22T13:04:56.072Z,74.09
2022-09-22T13:07:37.001Z,74.15
2022-09-22T13:10:28.037Z,74.31
2022-09-22T13:13:12.324Z,74.26
2022-09-22T13:15:47.738Z,74.45
2022-09-22T13:18:37.348Z,73.77
2022-09-22T13:21:15.358Z,73.57
2022-09-22T13:23:56.644Z,73.69
2022-09-22T13:26:39.030Z,73.86
2022-09-22T13:32:41.146Z,73.59
2022-09-22T13:35:34.705Z,73.65
2022-09-22T13:38:03.884Z,73.75
2022-09-22T13:40:35.567Z,73.71
2022-09-22T13:43:11.056Z,73.87
2022-09-22T13:45:40.975Z,73.92
2022-09-22T13:48:15.373Z,73.73
2022-09-22T13:51:19.715Z,73.92
2022-09-22T13:53:53.391Z,73.74
2022-09-22T13:56:25.435Z,73.67
2022-09-22T13:59:04.208Z,73.65
2022-09-22T14:01:34.794Z,73.45
2022-09-22T14:04:04.797Z,73.45
2022-09-22T14:06:35.302Z,73.40
2022-09-22T14:09:16.994Z,73.44
2022-09-22T14:11:45.987Z,73.09
2022-09-22T14:14:32.284Z,73.33
2022-09-22T14:17:06.439Z,73.30
2022-09-22T14:19:41.748Z,73.19
2022-09-22T14:22:32.807Z,73.42
2022-09-22T14:25:04.923Z,73.17
2022-09-22T14:27:42.058Z,73.27
2022-09-22T14:30:18.835Z,73.40
2022-09-22T14:32:57.417Z,73.20
2022-09-22T14:35:37.077Z,73.09
2022-09-22T14:38:16.632Z,73.10
2022-09-22T14:40:55.834Z,73.29
2022-09-22T14:43:39.681Z,72.99
2022-09-22T14:46:42.441Z,72.82
2022-09-22T14:49:41.407Z,72.67
2022-09-22T14:52:25.845Z,72.46
2022-09-22T14:54:58.168Z,72.48
2022-09-22T14:57:28.294Z,72.37
2022-09-22T15:00:18.259Z,72.53
2022-09-22T15:02:53.631Z,72.46
2022-09-22T15:05:30.418Z,72.41
2022-09-22T15:08:01.037Z,72.28
2022-09-22T15:10:33.281Z,72.59
2022-09-22T15:13:32.106Z,72.41
2022-09-22T15:16:01.351Z,72.38
2022-09-22T15:18:31.198Z,72.69
2022-09-22T15:21:22.596Z,72.84
2022-09-22T15:23:52.252Z,72.60
2022-09-22T15:26:25.586Z,72.57
2022-09-22T15:28:59.527Z,72.70
2022-09-22T15:31:30.371Z,73.03
2022-09-22T15:34:03.694Z,72.87
2022-09-22T15:36:34.002Z,72.73
2022-09-22T15:39:20.075Z,72.94
2022-09-22T15:41:49.191Z,72.64
2022-09-22T15:44:18.771Z,72.70
2022-09-22T15:46:54.765Z,72.74
2022-09-22T15:49:27.057Z,72.93
2022-09-22T15:51:59.236Z,73.09
2022-09-22T15:54:29.968Z,73.30
2022-09-22T15:57:00.473Z,73.10
2022-09-22T15:59:33.236Z,73.19
2022-09-22T16:02:03.582Z,73.18
2022-09-22T16:04:34.921Z,73.09
2022-09-22T16:07:08.933Z,73.21
2022-09-22T16:09:37.785Z,72.93
2022-09-22T16:12:11.459Z,72.70
2022-09-22T16:14:41.952Z,72.91
2022-09-22T16:17:10.888Z,72.52
2022-09-22T16:19:39.683Z,72.47
2022-09-22T16:22:08.428Z,72.45
2022-09-22T16:24:37.309Z,72.39
2022-09-22T16:27:09.353Z,72.41
2022-09-22T16:29:38.084Z,72.50
2022-09-22T16:32:07.501Z,72.49
2022-09-22T16:34:37.950Z,72.75
2022-09-22T16:37:06.809Z,72.70
2022-09-22T16:39:35.751Z,73.14
2022-09-22T16:42:04.794Z,72.82
2022-09-22T16:44:33.725Z,72.88
2022-09-22T16:47:02.810Z,72.74
2022-09-22T16:49:34.020Z,72.50
2022-09-22T16:52:03.080Z,72.66
2022-09-22T16:54:34.375Z,72.21
2022-09-22T16:57:03.123Z,72.77
2022-09-22T16:59:31.932Z,72.71
2022-09-22T17:02:01.559Z,72.68
2022-09-22T17:04:32.858Z,73.12
2022-09-22T17:07:03.880Z,73.06
2022-09-22T17:09:32.827Z,73.33
2022-09-22T17:12:02.991Z,73.36
2022-09-22T17:14:33.147Z,73.36
2022-09-22T17:17:07.155Z,73.31
2022-09-22T17:19:36.266Z,73.13
2022-09-22T17:22:05.717Z,73.35
2022-09-22T17:24:34.949Z,73.34
2022-09-22T17:27:04.049Z,73.36
2022-09-22T17:29:33.343Z,73.09
2022-09-22T17:32:09.323Z,73.21
2022-09-22T17:34:38.896Z,73.42
2022-09-22T17:37:07.730Z,73.26
2022-09-22T17:39:36.727Z,73.34
2022-09-22T17:42:06.287Z,73.24
2022-09-22T17:44:36.210Z,72.98
2022-09-22T17:47:23.488Z,73.43
2022-09-22T17:50:10.829Z,73.14
2022-09-22T17:52:40.790Z,73.23
2022-09-22T17:55:19.746Z,73.37
2022-09-22T17:57:48.897Z,73.63
2022-09-22T18:00:21.927Z,73.39
2022-09-22T18:02:53.701Z,73.31
2022-09-22T18:05:26.395Z,73.25
2022-09-22T18:07:59.038Z,73.41
2022-09-22T18:10:32.911Z,73.34
2022-09-22T18:13:02.930Z,73.33
2022-09-22T18:15:31.943Z,73.28
2022-09-22T18:18:00.804Z,73.23
2022-09-22T18:20:30.354Z,73.38
2022-09-22T18:23:01.238Z,73.21
2022-09-22T18:25:30.915Z,72.87
2022-09-22T18:28:01.118Z,72.83
2022-09-22T18:30:30.056Z,72.84
2022-09-22T18:32:58.760Z,72.93
2022-09-22T18:35:29.426Z,73.09
2022-09-22T18:37:59.895Z,73.29
2022-09-22T18:40:30.613Z,73.29
2022-09-22T18:42:59.407Z,73.44
2022-09-22T18:45:28.655Z,73.37
2022-09-22T18:47:59.817Z,73.62
2022-09-22T18:50:36.197Z,73.75
2022-09-22T18:53:04.864Z,73.96
2022-09-22T18:55:33.607Z,73.92
2022-09-22T18:58:02.348Z,73.75
2022-09-22T19:00:32.213Z,73.89
2022-09-22T19:03:01.103Z,73.97
2022-09-22T19:05:34.565Z,73.77
2022-09-22T19:08:10.027Z,74.10
2022-09-22T19:10:41.286Z,73.89
2022-09-22T19:13:10.055Z,74.14
2022-09-22T19:15:42.432Z,74.03
2022-09-22T19:18:11.250Z,74.18
2022-09-22T19:20:40.197Z,74.59
2022-09-22T19:23:08.840Z,74.68
2022-09-22T19:25:39.345Z,74.80
2022-09-22T19:28:08.400Z,74.60
2022-09-22T19:30:37.137Z,74.86
2022-09-22T19:33:06.189Z,75.18
2022-09-22T19:35:39.021Z,75.13
2022-09-22T19:38:08.214Z,75.12
2022-09-22T19:40:37.079Z,75.07
2022-09-22T19:43:05.806Z,75.29
2022-09-22T19:45:34.546Z,75.46
2022-09-22T19:48:04.408Z,75.53
2022-09-22T19:50:33.104Z,75.55
2022-09-22T19:53:01.998Z,75.46
2022-09-22T19:55:30.687Z,75.59
2022-09-22T19:57:59.606Z,75.67
2022-09-22T20:00:28.835Z,75.58
2022-09-22T20:03:01.316Z,75.65
2022-09-22T20:05:37.450Z,75.69
2022-09-22T20:08:08.722Z,75.73
2022-09-22T20:10:37.602Z,75.63
2022-09-22T20:13:29.875Z,75.86
2022-09-22T20:16:04.551Z,75.83
2022-09-22T20:18:41.242Z,75.70
2022-09-22T20:21:14.572Z,75.89
2022-09-22T20:23:43.277Z,75.78
2022-09-22T20:26:12.085Z,75.66
2022-09-22T20:28:42.219Z,75.75
2022-09-22T20:31:12.412Z,75.95
2022-09-22T20:33:44.457Z,75.74
2022-09-22T20:36:16.907Z,75.65
2022-09-22T20:38:45.885Z,75.75
2022-09-22T20:41:23.738Z,75.74
2022-09-22T20:43:54.507Z,75.76
2022-09-22T20:46:23.454Z,75.81
2022-09-22T20:48:55.935Z,75.68
2022-09-22T20:51:24.899Z,75.91
2022-09-22T20:53:56.481Z,75.91
2022-09-22T20:56:27.830Z,76.17
2022-09-22T20:59:00.490Z,76.12
2022-09-22T21:01:36.854Z,76.09
2022-09-22T21:04:15.525Z,75.99
2022-09-22T21:06:50.733Z,75.94
2022-09-22T21:09:39.014Z,76.07
2022-09-22T21:12:12.295Z,75.88
2022-09-22T21:14:47.334Z,76.08
2022-09-22T21:17:18.003Z,76.12
2022-09-22T21:19:49.519Z,76.25
2022-09-22T21:22:24.078Z,76.31
2022-09-22T23:06:30.250Z,81.79
2022-09-22T23:08:59.599Z,82.16
2022-09-22T23:11:36.207Z,82.09
2022-09-22T23:14:07.363Z,82.22
2022-09-22T23:16:40.011Z,82.40
2022-09-22T23:19:12.082Z,82.86
2022-09-22T23:21:41.125Z,82.64
2022-09-22T23:24:10.655Z,82.79
2022-09-22T23:26:39.575Z,83.06
2022-09-22T23:29:08.377Z,82.87
2022-09-22T23:31:37.135Z,83.11
2022-09-22T23:34:05.875Z,83.48
2022-09-22T23:36:34.512Z,83.13
2022-09-22T23:39:06.286Z,83.29
2022-09-22T23:41:37.498Z,83.20
2022-09-22T23:44:07.367Z,83.16
2022-09-22T23:46:38.061Z,83.33
2022-09-22T23:49:07.199Z,83.43
2022-09-22T23:51:35.937Z,83.59
2022-09-22T23:54:04.745Z,83.78
2022-09-22T23:56:33.423Z,84.02
2022-09-22T23:59:02.068Z,84.18
